createdAt,value
2022-10-23T00:00:11.643Z,23.50
2022-10-23T00:01:11.546Z,16.40
2022-10-23T00:02:11.605Z,15.70
2022-10-23T00:03:11.532Z,21.30
2022-10-23T00:04:11.580Z,22.00
2022-10-23T00:05:11.566Z,15.10
2022-10-23T00:06:11.522Z,22.20
2022-10-23T00:07:11.549Z,14.50
2022-10-23T00:08:11.492Z,14.90
2022-10-23T00:09:11.504Z,19.70
2022-10-23T00:10:11.488Z,16.80
2022-10-23T00:11:11.448Z,19.50
2022-10-23T00:12:11.435Z,20.40
2022-10-23T00:13:11.425Z,19.80
2022-10-23T00:14:11.492Z,20.00
2022-10-23T00:15:11.461Z,17.90
2022-10-23T00:16:11.405Z,18.20
2022-10-23T00:17:11.401Z,21.60
2022-10-23T00:18:11.371Z,22.40
2022-10-23T00:19:11.353Z,14.00
2022-10-23T00:20:11.377Z,18.20
2022-10-23T00:21:11.331Z,15.00
2022-10-23T00:22:11.319Z,19.90
2022-10-23T00:23:11.312Z,16.80
2022-10-23T00:24:11.418Z,23.50
2022-10-23T00:25:11.293Z,18.70
2022-10-23T00:26:11.305Z,19.70
2022-10-23T00:27:11.266Z,19.80
2022-10-23T00:28:11.260Z,16.10
2022-10-23T00:29:11.250Z,16.20
2022-10-23T00:30:11.245Z,15.80
2022-10-23T00:31:11.247Z,12.50
2022-10-23T00:32:11.212Z,14.70
2022-10-23T00:33:11.204Z,15.20
2022-10-23T00:34:11.203Z,14.30
2022-10-23T00:35:11.179Z,17.70
2022-10-23T00:37:13.765Z,20.60
2022-10-23T00:38:14.751Z,17.80
2022-10-23T00:39:14.746Z,18.20
2022-10-23T00:40:14.711Z,15.80
2022-10-23T00:41:14.733Z,17.50
2022-10-23T00:42:14.692Z,15.20
2022-10-23T00:43:14.686Z,20.10
2022-10-23T00:44:14.674Z,17.50
2022-10-23T00:45:14.722Z,14.00
2022-10-23T00:46:14.649Z,21.40
2022-10-23T00:47:14.705Z,24.90
2022-10-23T00:48:14.648Z,18.20
2022-10-23T00:49:14.698Z,20.20
2022-10-23T00:50:14.719Z,21.20
2022-10-23T00:51:14.602Z,20.30
2022-10-23T00:52:14.615Z,17.00
2022-10-23T00:53:14.566Z,18.40
2022-10-23T00:54:29.926Z,18.20
2022-10-23T00:55:14.591Z,17.80
2022-10-23T00:56:14.533Z,21.40
2022-10-23T00:57:14.555Z,29.70
2022-10-23T00:58:14.517Z,27.00
2022-10-23T00:59:14.674Z,19.30
2022-10-23T01:00:14.483Z,19.00
2022-10-23T01:01:14.585Z,24.10
2022-10-23T01:02:14.706Z,15.90
2022-10-23T01:03:14.487Z,22.00
2022-10-23T01:04:14.453Z,24.80
2022-10-23T01:05:14.472Z,21.10
2022-10-23T01:06:14.465Z,18.50
2022-10-23T01:07:14.422Z,20.70
2022-10-23T01:08:14.449Z,25.70
2022-10-23T01:09:14.402Z,21.80
2022-10-23T01:10:14.393Z,23.40
2022-10-23T01:11:14.382Z,18.70
2022-10-23T01:12:14.394Z,15.00
2022-10-23T01:13:14.343Z,25.50
2022-10-23T01:14:14.363Z,21.60
2022-10-23T01:15:14.329Z,27.10
2022-10-23T01:16:14.370Z,16.50
2022-10-23T01:17:14.295Z,16.30
2022-10-23T01:18:14.291Z,23.00
2022-10-23T01:19:14.294Z,23.70
2022-10-23T01:20:14.351Z,20.70
2022-10-23T01:21:14.272Z,25.50
2022-10-23T01:22:14.329Z,28.00
2022-10-23T01:23:14.271Z,26.40
2022-10-23T01:24:14.255Z,20.60
2022-10-23T01:25:14.216Z,22.70
2022-10-23T01:26:14.236Z,18.20
2022-10-23T01:27:14.195Z,18.30
2022-10-23T01:28:14.182Z,19.00
2022-10-23T01:29:14.201Z,18.10
2022-10-23T01:30:14.207Z,24.10
2022-10-23T01:31:14.208Z,27.60
2022-10-23T01:32:14.243Z,19.80
2022-10-23T01:33:14.128Z,23.70
2022-10-23T01:34:14.127Z,24.80
2022-10-23T01:35:14.108Z,24.40
2022-10-23T01:36:14.103Z,19.00
2022-10-23T01:37:14.115Z,20.70
2022-10-23T01:38:14.077Z,26.20
2022-10-23T01:39:14.069Z,22.60
2022-10-23T01:40:14.057Z,19.10
2022-10-23T01:41:14.089Z,24.80
2022-10-23T01:42:14.043Z,22.80
2022-10-23T01:43:14.016Z,20.80
2022-10-23T01:44:14.017Z,19.30
2022-10-23T01:45:13.992Z,24.00
2022-10-23T01:46:13.990Z,21.20
2022-10-23T01:47:14.096Z,23.10
2022-10-23T01:48:14.001Z,18.70
2022-10-23T01:49:13.955Z,17.10
2022-10-23T01:50:13.971Z,19.60
2022-10-23T01:51:13.926Z,21.30
2022-10-23T01:52:13.912Z,22.20
2022-10-23T01:53:13.918Z,21.80
2022-10-23T01:54:13.926Z,21.30
2022-10-23T01:55:13.887Z,25.70
2022-10-23T01:56:13.872Z,19.10
2022-10-23T01:57:13.927Z,19.50
2022-10-23T01:58:13.890Z,16.90
2022-10-23T01:59:13.840Z,22.70
2022-10-23T02:00:13.820Z,16.20
2022-10-23T02:01:13.954Z,20.60
2022-10-23T02:02:13.857Z,24.80
2022-10-23T02:03:13.828Z,20.10
2022-10-23T02:04:13.782Z,16.60
2022-10-23T02:05:13.777Z,22.30
2022-10-23T02:06:13.799Z,23.00
2022-10-23T02:07:13.754Z,20.20
2022-10-23T02:08:13.759Z,28.40
2022-10-23T02:09:13.723Z,24.30
2022-10-23T02:10:13.730Z,21.60
2022-10-23T02:11:13.717Z,24.20
2022-10-23T02:12:13.778Z,17.00
2022-10-23T02:13:13.698Z,21.60
2022-10-23T02:14:13.692Z,29.30
2022-10-23T02:15:13.663Z,19.90
2022-10-23T02:16:13.677Z,20.30
2022-10-23T02:17:13.638Z,19.70
2022-10-23T02:18:13.650Z,22.50
2022-10-23T02:19:13.622Z,16.30
2022-10-23T02:20:13.648Z,20.50
2022-10-23T02:21:13.614Z,24.20
2022-10-23T02:22:13.584Z,20.90
2022-10-23T02:23:14.740Z,25.00
2022-10-23T02:24:13.583Z,21.20
2022-10-23T02:25:13.545Z,21.70
2022-10-23T02:26:13.554Z,20.60
2022-10-23T02:27:13.531Z,18.50
2022-10-23T02:28:13.561Z,20.40
2022-10-23T02:29:12.517Z,14.70
2022-10-23T02:30:13.497Z,20.80
2022-10-23T02:31:13.535Z,14.40
2022-10-23T02:32:13.489Z,18.80
2022-10-23T02:33:13.468Z,14.50
2022-10-23T02:34:13.472Z,20.20
2022-10-23T02:35:13.449Z,16.10
2022-10-23T02:36:13.456Z,15.80
2022-10-23T02:37:13.467Z,19.80
2022-10-23T02:38:13.427Z,17.40
2022-10-23T02:39:13.415Z,18.90
2022-10-23T02:40:13.414Z,16.50
2022-10-23T02:41:13.408Z,18.60
2022-10-23T02:42:34.376Z,18.90
2022-10-23T02:43:13.359Z,19.80
2022-10-23T02:44:13.345Z,18.90
2022-10-23T02:45:34.398Z,18.00
2022-10-23T02:46:13.357Z,20.10
2022-10-23T02:47:13.311Z,17.10
2022-10-23T02:48:13.351Z,15.20
2022-10-23T02:49:13.276Z,19.40
2022-10-23T02:50:13.300Z,20.30
2022-10-23T02:51:13.268Z,18.40
2022-10-23T02:52:13.260Z,20.30
2022-10-23T02:53:13.240Z,24.80
2022-10-23T02:54:13.241Z,22.00
2022-10-23T02:55:13.230Z,19.90
2022-10-23T02:56:13.202Z,18.50
2022-10-23T02:57:13.203Z,16.40
2022-10-23T02:58:13.183Z,18.10
2022-10-23T02:59:13.185Z,24.30
2022-10-23T03:00:13.200Z,19.90
2022-10-23T03:01:13.250Z,16.90
2022-10-23T03:02:13.286Z,18.40
2022-10-23T03:03:13.199Z,20.70
2022-10-23T03:04:13.124Z,19.80
2022-10-23T03:05:13.147Z,22.60
2022-10-23T03:06:13.092Z,19.70
2022-10-23T03:07:13.093Z,18.20
2022-10-23T03:08:13.122Z,20.60
2022-10-23T03:09:13.070Z,25.90
2022-10-23T03:10:13.129Z,18.40
2022-10-23T03:11:13.075Z,23.90
2022-10-23T03:12:13.033Z,22.80
2022-10-23T03:13:13.938Z,22.20
2022-10-23T03:14:13.007Z,18.30
2022-10-23T03:15:13.012Z,19.90
2022-10-23T03:16:12.991Z,19.20
2022-10-23T03:17:13.004Z,25.10
2022-10-23T03:18:12.970Z,17.40
2022-10-23T03:19:12.992Z,25.80
2022-10-23T03:20:12.964Z,19.00
2022-10-23T03:21:12.924Z,16.50
2022-10-23T03:22:12.962Z,21.80
2022-10-23T03:23:12.906Z,17.00
2022-10-23T03:24:12.938Z,20.80
2022-10-23T03:25:12.906Z,24.50
2022-10-23T03:26:12.895Z,19.50
2022-10-23T03:27:12.859Z,19.00
2022-10-23T03:28:12.866Z,20.60
2022-10-23T03:29:12.839Z,16.80
2022-10-23T03:30:12.850Z,20.60
2022-10-23T03:31:12.815Z,18.70
2022-10-23T03:32:12.850Z,22.20
2022-10-23T03:33:12.783Z,18.20
2022-10-23T03:34:12.801Z,25.20
2022-10-23T03:35:12.801Z,19.50
2022-10-23T03:36:12.771Z,17.30
2022-10-23T03:37:12.743Z,12.90
2022-10-23T03:38:12.732Z,16.30
2022-10-23T03:39:12.744Z,14.40
2022-10-23T03:40:12.771Z,18.20
2022-10-23T03:41:12.702Z,18.10
2022-10-23T03:42:12.717Z,16.80
2022-10-23T03:43:12.681Z,16.70
2022-10-23T03:44:12.692Z,14.50
2022-10-23T03:45:12.710Z,18.70
2022-10-23T03:46:12.688Z,20.80
2022-10-23T03:47:12.662Z,20.50
2022-10-23T03:48:12.657Z,15.60
2022-10-23T03:49:12.610Z,21.30
2022-10-23T03:50:12.636Z,17.00
2022-10-23T03:51:12.588Z,18.60
2022-10-23T03:52:12.614Z,24.20
2022-10-23T03:53:12.578Z,17.60
2022-10-23T03:54:12.568Z,17.50
2022-10-23T03:55:12.570Z,15.50
2022-10-23T03:56:12.541Z,27.10
2022-10-23T03:57:12.531Z,21.80
2022-10-23T03:58:12.573Z,18.60
2022-10-23T03:59:12.506Z,16.80
2022-10-23T04:00:12.515Z,18.60
2022-10-23T04:01:12.516Z,18.20
2022-10-23T04:02:12.526Z,19.90
2022-10-23T04:03:12.464Z,14.30
2022-10-23T04:04:12.477Z,15.10
2022-10-23T04:05:12.451Z,17.40
2022-10-23T04:06:12.441Z,29.20
2022-10-23T04:07:12.428Z,21.20
2022-10-23T04:08:16.329Z,18.30
2022-10-23T04:10:12.409Z,13.90
2022-10-23T04:11:12.380Z,17.10
2022-10-23T04:12:12.391Z,14.50
2022-10-23T04:13:12.359Z,22.10
2022-10-23T04:14:12.339Z,18.10
2022-10-23T04:15:12.365Z,24.10
2022-10-23T04:16:12.326Z,17.90
2022-10-23T04:17:12.307Z,18.00
2022-10-23T04:18:12.286Z,19.40
2022-10-23T04:19:12.330Z,14.20
2022-10-23T04:20:12.350Z,18.20
2022-10-23T04:21:12.263Z,15.70
2022-10-23T04:22:12.287Z,16.40
2022-10-23T04:23:12.246Z,16.80
2022-10-23T04:24:12.236Z,16.90
2022-10-23T04:25:12.251Z,16.00
2022-10-23T04:26:12.268Z,16.90
2022-10-23T04:27:12.201Z,19.40
2022-10-23T04:28:12.188Z,18.30
2022-10-23T04:29:12.203Z,12.80
2022-10-23T04:30:12.172Z,18.20
2022-10-23T04:31:12.166Z,14.90
2022-10-23T04:32:12.139Z,17.60
2022-10-23T04:33:12.126Z,14.10
2022-10-23T04:34:12.120Z,14.00
2022-10-23T04:35:12.102Z,18.90
2022-10-23T04:36:12.121Z,14.40
2022-10-23T04:37:12.077Z,13.50
2022-10-23T04:38:12.076Z,14.60
2022-10-23T04:39:12.095Z,22.30
2022-10-23T04:40:12.064Z,15.20
2022-10-23T04:41:12.052Z,14.40
2022-10-23T04:42:12.035Z,17.30
2022-10-23T04:43:12.078Z,14.60
2022-10-23T04:44:11.997Z,13.90
2022-10-23T04:45:11.998Z,12.00
2022-10-23T04:46:11.997Z,14.10
2022-10-23T04:47:11.964Z,19.20
2022-10-23T04:48:11.977Z,13.80
2022-10-23T04:49:11.947Z,12.20
2022-10-23T04:50:11.941Z,13.90
2022-10-23T04:51:11.961Z,14.50
2022-10-23T04:52:11.933Z,13.60
2022-10-23T04:53:11.958Z,14.10
2022-10-23T04:54:11.916Z,16.10
2022-10-23T04:55:11.883Z,17.70
2022-10-23T04:56:11.895Z,46.30
2022-10-23T04:57:11.859Z,35.30
2022-10-23T04:58:11.867Z,26.90
2022-10-23T04:59:11.841Z,31.20
2022-10-23T05:00:11.838Z,38.30
2022-10-23T05:01:11.926Z,43.20
2022-10-23T05:02:11.830Z,22.80
2022-10-23T05:03:11.810Z,29.90
2022-10-23T05:04:11.789Z,21.80
2022-10-23T05:05:11.775Z,19.20
2022-10-23T05:06:11.773Z,33.60
2022-10-23T05:07:11.810Z,79.10
2022-10-23T05:08:15.534Z,88.20
2022-10-23T05:09:11.726Z,19.00
2022-10-23T05:10:11.783Z,15.50
2022-10-23T05:11:11.749Z,20.90
2022-10-23T05:12:11.692Z,16.10
2022-10-23T05:13:11.678Z,15.90
2022-10-23T05:14:11.668Z,18.30
2022-10-23T05:15:11.687Z,16.60
2022-10-23T05:16:11.661Z,16.30
2022-10-23T05:17:11.640Z,12.20
2022-10-23T05:18:11.627Z,10.90
2022-10-23T05:19:11.625Z,18.30
2022-10-23T05:20:11.623Z,18.20
2022-10-23T05:21:11.624Z,13.50
2022-10-23T05:22:11.599Z,13.70
2022-10-23T05:23:11.579Z,18.00
2022-10-23T05:24:11.559Z,16.00
2022-10-23T05:25:11.561Z,16.80
2022-10-23T05:26:11.568Z,14.20
2022-10-23T05:27:11.516Z,15.40
2022-10-23T05:28:11.504Z,11.50
2022-10-23T05:29:11.490Z,13.60
2022-10-23T05:30:11.493Z,21.10
2022-10-23T05:31:11.497Z,11.30
2022-10-23T05:32:15.847Z,12.70
2022-10-23T05:33:11.467Z,14.40
2022-10-23T05:34:13.422Z,12.90
2022-10-23T05:35:11.428Z,14.10
2022-10-23T05:36:11.456Z,16.00
2022-10-23T05:37:11.467Z,14.00
2022-10-23T05:38:11.420Z,15.30
2022-10-23T05:39:11.385Z,14.50
2022-10-23T05:40:11.399Z,13.20
2022-10-23T05:41:11.386Z,13.20
2022-10-23T05:42:11.352Z,17.20
2022-10-23T05:43:11.366Z,13.70
2022-10-23T05:44:11.337Z,14.40
2022-10-23T05:45:11.327Z,14.00
2022-10-23T05:46:11.330Z,13.60
2022-10-23T05:47:11.311Z,19.40
2022-10-23T05:48:29.681Z,15.70
2022-10-23T05:49:11.280Z,15.80
2022-10-23T05:50:11.265Z,14.40
2022-10-23T05:51:11.283Z,18.60
2022-10-23T05:52:11.242Z,17.70
2022-10-23T05:53:11.219Z,16.30
2022-10-23T05:54:11.213Z,13.60
2022-10-23T05:55:11.231Z,12.20
2022-10-23T05:56:11.258Z,15.80
2022-10-23T05:57:11.255Z,17.80
2022-10-23T05:58:11.226Z,14.90
2022-10-23T05:59:11.194Z,16.40
2022-10-23T06:00:11.160Z,16.90
2022-10-23T06:01:11.276Z,15.30
2022-10-23T06:02:11.185Z,17.20
2022-10-23T06:03:11.149Z,14.90
2022-10-23T06:04:11.108Z,15.30
2022-10-23T06:05:11.111Z,18.70
2022-10-23T06:06:11.112Z,16.60
2022-10-23T06:07:11.066Z,19.00
2022-10-23T06:08:11.063Z,16.40
2022-10-23T06:09:11.065Z,17.10
2022-10-23T06:10:11.037Z,14.90
2022-10-23T06:11:11.037Z,13.70
2022-10-23T06:12:11.018Z,13.90
2022-10-23T06:13:10.994Z,16.50
2022-10-23T06:14:10.985Z,24.70
2022-10-23T06:15:11.368Z,15.00
2022-10-23T06:16:10.988Z,11.50
2022-10-23T06:17:10.985Z,16.30
2022-10-23T06:18:10.958Z,18.80
2022-10-23T06:19:10.936Z,19.80
2022-10-23T06:20:10.963Z,22.90
2022-10-23T06:21:10.930Z,13.40
2022-10-23T06:22:10.983Z,12.30
2022-10-23T06:23:10.951Z,17.80
2022-10-23T06:24:10.888Z,10.30
2022-10-23T06:25:10.866Z,16.10
2022-10-23T06:26:10.891Z,18.30
2022-10-23T06:27:10.845Z,20.60
2022-10-23T06:28:10.824Z,13.50
2022-10-23T06:29:10.829Z,13.90
2022-10-23T06:30:10.798Z,15.70
2022-10-23T06:31:10.857Z,17.70
2022-10-23T06:32:10.798Z,14.60
2022-10-23T06:33:10.818Z,11.90
2022-10-23T06:34:10.772Z,13.40
2022-10-23T06:35:10.739Z,16.20
2022-10-23T06:36:10.914Z,10.30
2022-10-23T06:37:10.757Z,12.20
2022-10-23T06:38:10.721Z,13.70
2022-10-23T06:39:10.716Z,15.20
2022-10-23T06:40:10.719Z,16.60
2022-10-23T06:41:10.699Z,13.90
2022-10-23T06:42:10.677Z,12.60
2022-10-23T06:43:10.735Z,13.60
2022-10-23T06:44:10.644Z,12.70
2022-10-23T06:45:10.647Z,13.30
2022-10-23T06:46:10.645Z,11.40
2022-10-23T06:47:10.697Z,11.60
2022-10-23T06:48:10.601Z,16.20
2022-10-23T06:49:10.590Z,15.50
2022-10-23T06:50:13.135Z,12.80
2022-10-23T06:51:10.604Z,13.00
2022-10-23T06:52:14.522Z,13.70
2022-10-23T06:53:10.543Z,18.60
2022-10-23T06:54:10.540Z,11.60
2022-10-23T06:55:10.523Z,13.30
2022-10-23T06:56:10.563Z,10.50
2022-10-23T06:57:10.515Z,12.90
2022-10-23T06:58:10.524Z,13.60
2022-10-23T06:59:10.526Z,10.20
2022-10-23T07:00:10.472Z,9.60
2022-10-23T07:01:10.584Z,14.90
2022-10-23T07:02:10.455Z,13.60
2022-10-23T07:03:10.444Z,15.40
2022-10-23T07:04:10.439Z,17.20
2022-10-23T07:05:13.510Z,25.80
2022-10-23T07:06:10.411Z,30.20
2022-10-23T07:07:10.379Z,41.40
2022-10-23T07:08:10.747Z,29.60
2022-10-23T07:09:10.389Z,34.70
2022-10-23T07:10:10.414Z,30.00
2022-10-23T07:11:10.364Z,21.50
2022-10-23T07:12:10.343Z,29.00
2022-10-23T07:13:10.315Z,28.70
2022-10-23T07:14:10.335Z,25.80
2022-10-23T07:15:10.294Z,28.20
2022-10-23T07:16:10.323Z,25.50
2022-10-23T07:17:10.275Z,23.10
2022-10-23T07:18:10.286Z,20.10
2022-10-23T07:19:10.246Z,20.70
2022-10-23T07:20:10.245Z,23.70
2022-10-23T07:21:10.263Z,17.60
2022-10-23T07:22:13.310Z,16.90
2022-10-23T07:23:10.227Z,15.60
2022-10-23T07:24:10.207Z,16.90
2022-10-23T07:25:10.192Z,16.30
2022-10-23T07:26:10.198Z,15.00
2022-10-23T07:27:10.194Z,16.10
2022-10-23T07:28:10.151Z,14.10
2022-10-23T07:29:10.163Z,15.10
2022-10-23T07:30:10.132Z,13.70
2022-10-23T07:31:10.138Z,12.00
2022-10-23T07:32:10.122Z,17.30
2022-10-23T07:33:10.122Z,22.40
2022-10-23T07:34:10.091Z,21.30
2022-10-23T07:35:10.140Z,16.90
2022-10-23T07:36:10.068Z,15.30
2022-10-23T07:37:10.059Z,17.50
2022-10-23T07:38:10.040Z,13.20
2022-10-23T07:39:10.030Z,15.20
2022-10-23T07:40:10.024Z,13.90
2022-10-23T07:41:12.280Z,15.40
2022-10-23T07:42:09.998Z,13.80
2022-10-23T07:43:09.981Z,11.70
2022-10-23T07:44:09.992Z,16.60
2022-10-23T07:45:09.949Z,13.70
2022-10-23T07:46:10.055Z,13.50
2022-10-23T07:47:09.937Z,14.80
2022-10-23T07:48:09.931Z,14.30
2022-10-23T07:49:09.910Z,11.40
2022-10-23T07:50:09.908Z,12.60
2022-10-23T07:51:09.975Z,15.50
2022-10-23T07:52:09.884Z,19.30
2022-10-23T07:53:09.948Z,15.60
2022-10-23T07:54:09.867Z,19.60
2022-10-23T07:55:09.867Z,18.30
2022-10-23T07:56:09.868Z,15.80
2022-10-23T07:57:09.828Z,17.00
2022-10-23T07:58:09.853Z,15.80
2022-10-23T07:59:09.804Z,17.90
2022-10-23T08:00:09.819Z,11.00
2022-10-23T08:01:09.908Z,11.40
2022-10-23T08:02:09.812Z,17.50
2022-10-23T08:03:09.788Z,15.40
2022-10-23T08:04:09.746Z,16.40
2022-10-23T08:05:09.734Z,22.00
2022-10-23T08:06:09.777Z,15.00
2022-10-23T08:07:09.762Z,18.40
2022-10-23T08:08:09.741Z,19.50
2022-10-23T08:09:09.695Z,22.70
2022-10-23T08:10:09.704Z,14.50
2022-10-23T08:11:09.688Z,17.00
2022-10-23T08:12:09.656Z,19.60
2022-10-23T08:13:09.672Z,17.40
2022-10-23T08:14:09.649Z,21.60
2022-10-23T08:15:09.627Z,12.70
2022-10-23T08:16:09.619Z,15.70
2022-10-23T08:17:09.829Z,14.50
2022-10-23T08:18:09.600Z,15.20
2022-10-23T08:19:09.611Z,16.20
2022-10-23T08:20:09.577Z,18.00
2022-10-23T08:21:09.562Z,14.40
2022-10-23T08:22:09.562Z,18.30
2022-10-23T08:23:09.556Z,14.20
2022-10-23T08:24:09.529Z,16.10
2022-10-23T08:25:09.579Z,12.80
2022-10-23T08:26:09.507Z,13.30
2022-10-23T08:27:09.525Z,14.20
2022-10-23T08:28:09.488Z,12.30
2022-10-23T08:29:09.468Z,11.70
2022-10-23T08:30:09.472Z,14.30
2022-10-23T08:31:09.453Z,11.50
2022-10-23T08:32:09.470Z,10.50
2022-10-23T08:33:09.419Z,16.90
2022-10-23T08:34:09.414Z,11.80
2022-10-23T08:35:09.403Z,19.20
2022-10-23T08:36:09.396Z,17.30
2022-10-23T08:37:09.391Z,19.00
2022-10-23T08:38:09.423Z,15.10
2022-10-23T08:39:09.356Z,9.20
2022-10-23T08:40:09.351Z,12.90
2022-10-23T08:41:09.332Z,16.20
2022-10-23T08:43:09.309Z,14.50
2022-10-23T08:44:09.340Z,11.90
2022-10-23T08:45:09.286Z,14.50
2022-10-23T08:46:09.563Z,14.20
2022-10-23T08:47:09.276Z,9.90
2022-10-23T08:48:09.287Z,13.70
2022-10-23T08:49:09.249Z,13.60
2022-10-23T08:50:09.244Z,12.30
2022-10-23T08:51:09.233Z,8.60
2022-10-23T08:52:11.756Z,7.20
2022-10-23T08:53:09.208Z,12.20
2022-10-23T08:54:09.193Z,8.20
2022-10-23T08:55:09.169Z,8.50
2022-10-23T08:56:09.189Z,9.80
2022-10-23T08:57:09.189Z,3.30
2022-10-23T08:58:09.147Z,12.30
2022-10-23T08:59:09.148Z,9.00
2022-10-23T09:00:09.135Z,8.60
2022-10-23T09:01:09.284Z,8.50
2022-10-23T09:02:09.301Z,8.10
2022-10-23T09:03:09.083Z,8.60
2022-10-23T09:04:09.070Z,6.70
2022-10-23T09:05:09.069Z,7.50
2022-10-23T09:06:09.068Z,9.10
2022-10-23T09:08:09.054Z,9.50
2022-10-23T09:09:09.041Z,12.50
2022-10-23T09:10:09.027Z,6.20
2022-10-23T09:11:09.010Z,10.80
2022-10-23T09:12:09.003Z,11.20
2022-10-23T09:13:09.145Z,8.00
2022-10-23T09:14:08.991Z,7.20
2022-10-23T09:15:08.977Z,13.40
2022-10-23T09:16:08.990Z,10.10
2022-10-23T09:17:09.057Z,13.70
2022-10-23T09:18:08.970Z,9.30
2022-10-23T09:19:12.047Z,10.70
2022-10-23T09:20:08.923Z,10.50
2022-10-23T09:21:08.897Z,10.70
2022-10-23T09:22:08.941Z,10.80
2022-10-23T09:23:08.927Z,7.50
2022-10-23T09:24:08.864Z,8.00
2022-10-23T09:25:08.859Z,10.30
2022-10-23T09:26:08.875Z,7.30
2022-10-23T09:27:08.859Z,10.50
2022-10-23T09:28:08.825Z,10.60
2022-10-23T09:29:08.816Z,5.30
2022-10-23T09:30:08.836Z,12.80
2022-10-23T09:31:08.800Z,11.30
2022-10-23T09:32:08.786Z,9.10
2022-10-23T09:33:08.778Z,8.00
2022-10-23T09:34:11.679Z,5.90
2022-10-23T09:35:08.734Z,10.50
2022-10-23T09:36:08.737Z,8.80
2022-10-23T09:37:08.749Z,8.20
2022-10-23T09:38:08.753Z,7.80
2022-10-23T09:39:08.702Z,7.50
2022-10-23T09:40:08.704Z,8.10
2022-10-23T09:41:08.685Z,10.10
2022-10-23T09:42:08.697Z,10.80
2022-10-23T09:43:08.658Z,8.00
2022-10-23T09:44:08.645Z,9.20
2022-10-23T09:45:08.629Z,8.00
2022-10-23T09:46:08.631Z,4.60
2022-10-23T09:47:08.623Z,7.00
2022-10-23T09:48:08.604Z,10.40
2022-10-23T09:49:08.576Z,10.30
2022-10-23T09:50:08.605Z,10.20
2022-10-23T09:51:08.564Z,11.90
2022-10-23T09:52:08.569Z,13.70
2022-10-23T09:53:08.569Z,13.60
2022-10-23T09:54:08.512Z,9.30
2022-10-23T09:55:08.509Z,6.70
2022-10-23T09:56:08.490Z,8.30
2022-10-23T09:57:08.504Z,7.50
2022-10-23T09:58:08.482Z,9.60
2022-10-23T09:59:08.462Z,8.90
2022-10-23T10:00:08.455Z,12.20
2022-10-23T10:01:08.555Z,8.30
2022-10-23T10:02:08.581Z,5.50
2022-10-23T10:03:08.414Z,11.60
2022-10-23T10:04:08.404Z,21.10
2022-10-23T10:05:08.427Z,8.00
2022-10-23T10:06:08.377Z,8.70
2022-10-23T10:07:08.404Z,7.60
2022-10-23T10:08:08.363Z,6.50
2022-10-23T10:09:08.348Z,14.30
2022-10-23T10:10:08.350Z,8.00
2022-10-23T10:11:08.329Z,6.60
2022-10-23T10:12:08.345Z,8.80
2022-10-23T10:13:11.952Z,9.50
2022-10-23T10:14:08.321Z,12.60
2022-10-23T10:15:08.294Z,10.00
2022-10-23T10:16:08.288Z,8.50
2022-10-23T10:17:08.267Z,7.80
2022-10-23T10:18:08.258Z,8.40
2022-10-23T10:19:08.243Z,9.90
2022-10-23T10:20:08.266Z,9.20
2022-10-23T10:21:08.229Z,7.10
2022-10-23T10:22:08.217Z,5.40
2022-10-23T10:23:08.204Z,14.10
2022-10-23T10:24:08.187Z,7.80
2022-10-23T10:25:08.171Z,6.10
2022-10-23T10:26:08.167Z,7.60
2022-10-23T10:27:08.180Z,8.00
2022-10-23T10:28:08.148Z,6.00
2022-10-23T10:29:08.124Z,5.30
2022-10-23T10:30:08.124Z,5.50
2022-10-23T10:31:08.099Z,9.60
2022-10-23T10:32:08.109Z,7.40
2022-10-23T10:33:08.085Z,10.20
2022-10-23T10:34:08.089Z,6.60
2022-10-23T10:35:08.079Z,6.50
2022-10-23T10:36:08.054Z,10.40
2022-10-23T10:37:08.058Z,13.00
2022-10-23T10:38:08.038Z,11.90
2022-10-23T10:39:08.031Z,10.70
2022-10-23T10:40:08.035Z,12.00
2022-10-23T10:41:08.009Z,9.30
2022-10-23T10:42:08.013Z,9.40
2022-10-23T10:43:07.977Z,10.00
2022-10-23T10:44:07.985Z,5.20
2022-10-23T10:45:07.950Z,9.80
2022-10-23T10:46:07.982Z,7.80
2022-10-23T10:47:07.959Z,10.90
2022-10-23T10:48:07.934Z,10.90
2022-10-23T10:49:07.903Z,7.00
2022-10-23T10:50:07.892Z,5.70
2022-10-23T10:51:07.888Z,4.80
2022-10-23T10:52:07.889Z,8.30
2022-10-23T10:53:07.864Z,13.40
2022-10-23T10:54:07.860Z,6.70
2022-10-23T10:55:07.855Z,15.90
2022-10-23T10:56:07.861Z,6.80
2022-10-23T10:57:07.864Z,5.60
2022-10-23T10:58:07.837Z,11.70
2022-10-23T10:59:07.787Z,5.80
2022-10-23T11:00:07.787Z,4.80
2022-10-23T11:01:07.896Z,10.40
2022-10-23T11:02:07.956Z,8.90
2022-10-23T11:03:07.786Z,7.20
2022-10-23T11:04:07.749Z,6.70
2022-10-23T11:05:07.720Z,6.60
2022-10-23T11:06:07.721Z,6.80
2022-10-23T11:07:07.728Z,6.20
2022-10-23T11:08:07.705Z,10.80
2022-10-23T11:09:19.930Z,7.60
2022-10-23T11:10:07.750Z,10.10
2022-10-23T11:11:07.662Z,5.70
2022-10-23T11:12:07.697Z,6.60
2022-10-23T11:13:07.654Z,9.70
2022-10-23T11:14:07.643Z,12.80
2022-10-23T11:15:07.616Z,10.30
2022-10-23T11:16:07.626Z,14.20
2022-10-23T11:17:07.628Z,10.60
2022-10-23T11:18:07.599Z,7.30
2022-10-23T11:19:11.412Z,7.90
2022-10-23T11:20:07.587Z,8.60
2022-10-23T11:21:07.567Z,9.60
2022-10-23T11:22:07.568Z,9.00
2022-10-23T11:23:07.548Z,11.30
2022-10-23T11:24:07.599Z,9.90
2022-10-23T11:25:07.514Z,9.90
2022-10-23T11:26:07.543Z,5.90
2022-10-23T11:27:07.510Z,9.00
2022-10-23T11:28:10.564Z,7.80
2022-10-23T11:29:07.493Z,9.50
2022-10-23T11:30:07.459Z,11.40
2022-10-23T11:31:11.666Z,9.60
2022-10-23T11:32:07.486Z,10.60
2022-10-23T11:33:07.513Z,14.40
2022-10-23T11:34:08.318Z,10.80
2022-10-23T11:35:07.397Z,10.90
2022-10-23T11:36:07.461Z,10.60
2022-10-23T11:37:07.467Z,7.90
2022-10-23T11:38:07.375Z,9.20
2022-10-23T11:39:07.349Z,8.00
2022-10-23T11:40:07.442Z,5.20
2022-10-23T11:41:07.333Z,5.00
2022-10-23T11:42:07.406Z,3.40
2022-10-23T11:43:07.304Z,6.90
2022-10-23T11:44:07.327Z,5.30
2022-10-23T11:45:07.299Z,6.70
2022-10-23T11:46:07.277Z,4.30
2022-10-23T11:47:07.285Z,5.40
2022-10-23T11:48:07.288Z,12.30
2022-10-23T11:49:07.295Z,10.50
2022-10-23T11:50:07.311Z,12.50
2022-10-23T11:51:07.227Z,13.00
2022-10-23T11:52:07.229Z,7.60
2022-10-23T11:53:15.477Z,8.50
2022-10-23T11:54:07.205Z,8.10
2022-10-23T11:55:07.182Z,8.30
2022-10-23T11:56:07.169Z,10.10
2022-10-23T11:57:10.332Z,8.80
2022-10-23T11:58:07.162Z,10.30
2022-10-23T11:59:07.129Z,5.40
2022-10-23T12:00:07.881Z,8.50
2022-10-23T12:01:07.166Z,10.60
2022-10-23T12:02:07.166Z,11.30
2022-10-23T12:03:07.091Z,13.10
2022-10-23T12:04:07.083Z,10.70
2022-10-23T12:05:07.097Z,12.80
2022-10-23T12:06:07.086Z,11.20
2022-10-23T12:07:07.084Z,9.50
2022-10-23T12:08:07.039Z,14.50
2022-10-23T12:09:07.184Z,8.10
2022-10-23T12:10:07.005Z,6.30
2022-10-23T12:11:07.035Z,11.50
2022-10-23T12:12:07.286Z,6.80
2022-10-23T12:13:06.981Z,8.60
2022-10-23T12:14:07.034Z,9.20
2022-10-23T12:15:06.972Z,7.50
2022-10-23T12:16:06.971Z,12.40
2022-10-23T12:17:06.964Z,12.40
2022-10-23T12:18:07.068Z,9.20
2022-10-23T12:19:06.913Z,8.90
2022-10-23T12:20:07.051Z,10.30
2022-10-23T12:21:06.884Z,8.10
2022-10-23T12:22:06.953Z,13.90
2022-10-23T12:23:06.910Z,9.80
2022-10-23T12:24:07.224Z,12.20
2022-10-23T12:25:06.903Z,10.10
2022-10-23T12:26:06.840Z,10.20
2022-10-23T12:27:07.167Z,6.90
2022-10-23T12:28:06.812Z,10.80
2022-10-23T12:29:06.838Z,12.50
2022-10-23T12:30:06.799Z,14.00
2022-10-23T12:31:06.775Z,10.90
2022-10-23T12:32:06.807Z,7.40
2022-10-23T12:33:06.794Z,9.20
2022-10-23T12:34:06.808Z,11.70
2022-10-23T12:35:06.734Z,10.30
2022-10-23T12:36:06.735Z,8.10
2022-10-23T12:37:14.488Z,8.10
2022-10-23T12:38:06.699Z,6.90
2022-10-23T12:39:06.723Z,8.70
2022-10-23T12:40:06.676Z,7.60
2022-10-23T12:41:06.667Z,6.70
2022-10-23T12:42:06.683Z,8.50
2022-10-23T12:43:06.644Z,12.70
2022-10-23T12:44:06.657Z,9.10
2022-10-23T12:45:06.611Z,17.50
2022-10-23T12:46:06.604Z,8.00
2022-10-23T12:47:06.611Z,6.70
2022-10-23T12:48:06.635Z,8.50
2022-10-23T12:49:06.621Z,10.00
2022-10-23T12:50:06.600Z,6.60
2022-10-23T12:51:06.567Z,6.50
2022-10-23T12:52:06.618Z,9.50
2022-10-23T12:53:06.591Z,4.50
2022-10-23T12:54:06.550Z,15.40
2022-10-23T12:55:06.525Z,14.50
2022-10-23T12:56:06.512Z,9.40
2022-10-23T12:57:06.505Z,16.70
2022-10-23T12:58:06.485Z,18.40
2022-10-23T12:59:06.462Z,13.50
2022-10-23T13:00:06.453Z,7.30
2022-10-23T13:01:06.656Z,5.50